Time;durP1;ratioP1;P1;durP2;ratioP2;P2;SDS_P1;SDS_P2;PMS_P1;PMS_P2;Temp;Humidity;BMP_temperature;BMP_pressure;BME280_temperature;BME280_humidity;BME280_pressure;Samples;Min_cycle;Max_cycle;Signal;HPM_P1;HPM_P2
2020/12/30 00:00:10;;;;;;;4.45;0.60;;;;;;;4.60;87.04;99502.94;5068318;28;20541;-61
2020/12/30 00:02:40;;;;;;;4.40;0.50;;;;;;;4.59;86.84;99500.50;5067466;28;20414;-63
2020/12/30 00:05:09;;;;;;;2.08;0.30;;;;;;;4.60;86.95;99502.13;5068188;28;20049;-63
2020/12/30 00:07:37;;;;;;;2.45;0.45;;;;;;;4.61;86.97;99501.84;5067670;28;20036;-62
2020/12/30 00:10:05;;;;;;;3.40;0.40;;;;;;;4.60;86.88;99505.72;5069991;28;20128;-64
2020/12/30 00:12:32;;;;;;;3.30;0.40;;;;;;;4.60;86.96;99514.00;5071494;28;20064;-64
2020/12/30 00:15:00;;;;;;;3.30;0.50;;;;;;;4.62;87.08;99510.94;5071809;28;20124;-64
2020/12/30 00:17:27;;;;;;;4.57;0.60;;;;;;;4.60;86.95;99510.41;5070939;28;20048;-64
2020/12/30 00:19:54;;;;;;;4.78;0.40;;;;;;;4.61;86.82;99512.88;5071424;28;20458;-64
2020/12/30 00:22:21;;;;;;;8.48;0.65;;;;;;;4.62;86.65;99510.94;5070537;28;20664;-66
2020/12/30 00:24:48;;;;;;;6.32;0.50;;;;;;;4.66;86.93;99512.00;5071669;28;20123;-65
2020/12/30 00:27:14;;;;;;;3.35;0.45;;;;;;;4.73;87.25;99515.25;5071573;28;20127;-67
2020/12/30 00:29:41;;;;;;;6.03;0.65;;;;;;;4.82;87.21;99510.72;5070735;28;20427;-67
2020/12/30 00:32:10;;;;;;;2.08;0.50;;;;;;;4.89;87.03;99502.91;5071263;28;20044;-67
2020/12/30 00:34:37;;;;;;;2.45;0.40;;;;;;;4.95;86.96;99510.03;5071379;28;20133;-67
2020/12/30 00:37:04;;;;;;;3.72;0.40;;;;;;;4.98;87.00;99503.91;5070966;28;20044;-68
2020/12/30 00:39:31;;;;;;;2.65;0.40;;;;;;;5.00;87.06;99507.16;5071453;28;20509;-68
2020/12/30 00:41:58;;;;;;;3.20;0.50;;;;;;;5.01;87.11;99503.28;5071433;28;20513;-68
2020/12/30 00:44:24;;;;;;;3.47;0.38;;;;;;;5.00;86.87;99503.59;5070085;28;20056;-66
2020/12/30 00:46:52;;;;;;;3.75;0.60;;;;;;;4.99;86.84;99513.84;5071382;28;20127;-66
2020/12/30 00:49:20;;;;;;;3.33;0.43;;;;;;;4.98;86.72;99512.19;5069384;28;20453;-67
2020/12/30 00:51:51;;;;;;;5.40;0.82;;;;;;;5.01;87.06;99513.53;5069673;28;20049;-65
2020/12/30 00:54:19;;;;;;;5.72;0.43;;;;;;;5.03;87.03;99517.66;5069502;28;20388;-66
2020/12/30 00:56:47;;;;;;;5.82;1.20;;;;;;;5.07;87.20;99515.94;5070993;28;20101;-65
2020/12/30 00:59:14;;;;;;;5.07;0.60;;;;;;;5.11;86.88;99519.75;5070239;28;20040;-67
2020/12/30 01:01:42;;;;;;;2.20;0.40;;;;;;;5.13;86.96;99520.28;5069477;28;20058;-66
2020/12/30 01:04:23;;;;;;;5.03;0.47;;;;;;;5.14;87.04;99524.72;5069378;28;20139;-66
2020/12/30 01:06:50;;;;;;;3.28;0.50;;;;;;;5.15;86.80;99529.13;5070379;28;20123;-66
2020/12/30 01:09:18;;;;;;;2.20;0.40;;;;;;;5.16;86.63;99529.94;5070473;28;20124;-65
2020/12/30 01:11:44;;;;;;;5.90;0.60;;;;;;;5.17;86.81;99528.81;5070077;28;20046;-65
2020/12/30 01:14:11;;;;;;;2.78;0.40;;;;;;;5.16;86.88;99527.19;5070832;28;20071;-64
2020/12/30 01:16:39;;;;;;;4.57;0.32;;;;;;;5.12;86.82;99532.47;5071302;28;20491;-65
2020/12/30 01:19:06;;;;;;;3.95;0.60;;;;;;;5.12;86.83;99538.00;5069745;28;20078;-66
2020/12/30 01:21:40;;;;;;;2.80;0.30;;;;;;;5.08;86.85;99539.72;5069520;28;20135;-63
2020/12/30 01:24:06;;;;;;;1.83;0.30;;;;;;;5.04;86.70;99541.41;5070498;28;20036;-65
2020/12/30 01:26:33;;;;;;;4.13;0.32;;;;;;;5.01;86.91;99547.53;5070272;28;20040;-64
2020/12/30 01:29:00;;;;;;;4.50;0.40;;;;;;;4.98;86.75;99544.56;5070190;28;20308;-64
2020/12/30 01:31:27;;;;;;;2.70;0.30;;;;;;;4.96;86.38;99544.84;5070451;28;20044;-63
2020/12/30 01:33:54;;;;;;;3.53;0.30;;;;;;;4.96;86.83;99546.78;5069849;28;20054;-63
2020/12/30 01:36:21;;;;;;;2.65;0.40;;;;;;;4.94;86.48;99554.53;5070585;28;20078;-63
2020/12/30 01:38:49;;;;;;;7.53;0.60;;;;;;;4.93;86.85;99556.47;5070377;28;20063;-65
2020/12/30 01:41:16;;;;;;;5.63;0.68;;;;;;;4.94;86.81;99560.06;5068045;28;20087;-63
2020/12/30 01:43:56;;;;;;;3.13;0.45;;;;;;;4.96;86.69;99560.59;5070373;28;20056;-64
2020/12/30 01:46:33;;;;;;;1.83;0.40;;;;;;;4.96;86.56;99563.38;5069868;28;20056;-64
2020/12/30 01:49:01;;;;;;;3.40;0.47;;;;;;;4.97;86.89;99563.06;5069821;28;20453;-62
2020/12/30 01:51:27;;;;;;;3.45;0.50;;;;;;;5.00;86.89;99562.47;5069619;28;20040;-62
2020/12/30 01:53:55;;;;;;;4.88;0.82;;;;;;;5.05;86.46;99565.19;5069405;28;20120;-63
2020/12/30 01:56:27;;;;;;;2.25;0.40;;;;;;;5.08;86.42;99570.13;5069423;28;20072;-65
2020/12/30 01:58:54;;;;;;;3.10;0.40;;;;;;;5.11;86.53;99568.72;5069977;28;20539;-62
2020/12/30 02:01:24;;;;;;;4.68;0.93;;;;;;;5.13;86.29;99575.59;5067302;28;20147;-63
2020/12/30 02:03:54;;;;;;;2.85;0.60;;;;;;;5.15;86.56;99576.13;5070257;28;20511;-65
2020/12/30 02:06:21;;;;;;;7.22;0.77;;;;;;;5.17;86.58;99584.13;5069194;28;20127;-64
2020/12/30 02:08:49;;;;;;;2.13;0.43;;;;;;;5.22;86.53;99586.00;5069206;28;20128;-63
2020/12/30 02:11:16;;;;;;;3.63;0.50;;;;;;;5.28;86.53;99593.13;5069322;28;20038;-63
2020/12/30 02:13:43;;;;;;;3.25;0.52;;;;;;;5.34;86.31;99600.25;5069816;28;20051;-65
2020/12/30 02:16:09;;;;;;;4.50;0.52;;;;;;;5.33;86.09;99599.41;5068683;28;20119;-66
2020/12/30 02:18:54;;;;;;;5.75;0.60;;;;;;;5.31;85.90;99593.34;5069381;28;20056;-63
2020/12/30 02:21:21;;;;;;;3.80;0.40;;;;;;;5.31;85.71;99601.66;5069178;28;20083;-62
2020/12/30 02:23:51;;;;;;;5.75;0.52;;;;;;;5.30;85.98;99607.47;5068941;28;20155;-62
2020/12/30 02:26:18;;;;;;;5.40;0.63;;;;;;;5.26;85.59;99606.41;5068946;28;20058;-62
2020/12/30 02:28:45;;;;;;;3.40;0.40;;;;;;;5.22;85.72;99603.41;5069149;28;20041;-64
2020/12/30 02:31:12;;;;;;;3.90;0.50;;;;;;;5.20;85.53;99606.47;5068255;28;20036;-61
2020/12/30 02:33:39;;;;;;;3.42;0.60;;;;;;;5.18;85.60;99607.91;5068778;28;20040;-65
2020/12/30 02:36:06;;;;;;;3.03;0.40;;;;;;;5.14;85.82;99613.19;5068535;28;20072;-62
2020/12/30 02:38:33;;;;;;;5.88;0.60;;;;;;;5.13;85.82;99608.78;5069355;28;20094;-64
2020/12/30 02:41:00;;;;;;;3.47;0.50;;;;;;;5.12;85.77;99609.06;5069092;28;20048;-65
2020/12/30 02:43:28;;;;;;;2.33;0.50;;;;;;;5.10;86.29;99608.53;5068409;28;20068;-63
2020/12/30 02:45:55;;;;;;;4.28;0.52;;;;;;;5.09;86.23;99609.66;5068772;28;20060;-63
2020/12/30 02:48:21;;;;;;;6.20;0.70;;;;;;;5.07;86.41;99606.34;5068673;28;20040;-64
2020/12/30 02:50:48;;;;;;;4.40;0.70;;;;;;;5.07;86.27;99617.41;5068691;28;20459;-64
2020/12/30 02:53:15;;;;;;;4.82;0.52;;;;;;;5.04;86.33;99607.75;5068768;28;20621;-65
2020/12/30 02:55:42;;;;;;;2.97;0.40;;;;;;;5.04;86.33;99612.47;5068906;28;20510;-64
2020/12/30 02:58:08;;;;;;;3.78;0.30;;;;;;;5.02;86.35;99610.00;5068143;28;20070;-62
2020/12/30 03:00:36;;;;;;;4.75;0.50;;;;;;;5.02;86.07;99612.75;5068783;28;20058;-62
2020/12/30 03:03:03;;;;;;;1.73;0.40;;;;;;;5.00;86.07;99611.41;5068759;28;20064;-64
2020/12/30 03:05:30;;;;;;;1.70;0.30;;;;;;;5.00;86.06;99625.22;5068570;28;20067;-63
2020/12/30 03:07:56;;;;;;;1.60;0.17;;;;;;;4.98;85.62;99620.00;5068584;28;20048;-62
2020/12/30 03:10:23;;;;;;;0.20;0.00;;;;;;;4.97;85.81;99617.53;5068692;28;20143;-65
2020/12/30 03:12:50;;;;;;;2.65;0.20;;;;;;;4.97;85.46;99618.38;5067953;28;20452;-64
2020/12/30 03:15:17;;;;;;;0.68;0.15;;;;;;;4.97;85.40;99617.53;5068726;28;20586;-65
2020/12/30 03:17:44;;;;;;;2.90;0.40;;;;;;;4.98;85.63;99620.00;5068783;28;20044;-64
2020/12/30 03:20:11;;;;;;;1.55;0.28;;;;;;;4.98;85.55;99622.78;5068196;28;20072;-61
2020/12/30 03:22:38;;;;;;;2.53;0.30;;;;;;;4.99;85.32;99627.19;5068073;28;20055;-63
2020/12/30 03:25:05;;;;;;;2.97;0.35;;;;;;;5.00;85.41;99639.03;5068495;28;20048;-65
2020/12/30 03:27:31;;;;;;;2.65;0.30;;;;;;;5.00;85.23;99639.03;5068259;28;20044;-65
2020/12/30 03:29:58;;;;;;;2.10;0.20;;;;;;;5.01;85.13;99635.97;5068348;28;20045;-62
2020/12/30 03:32:26;;;;;;;2.88;0.28;;;;;;;5.03;85.23;99642.06;5068379;28;20049;-62
2020/12/30 03:34:54;;;;;;;1.50;0.30;;;;;;;5.03;84.91;99639.28;5068330;28;20178;-61
2020/12/30 03:37:21;;;;;;;1.38;0.20;;;;;;;5.04;84.59;99632.63;5068919;28;20044;-66
2020/12/30 03:39:49;;;;;;;1.02;0.30;;;;;;;5.03;84.87;99632.94;5067723;28;20133;-63
2020/12/30 03:42:16;;;;;;;2.72;0.30;;;;;;;5.02;85.03;99632.09;5068640;28;20047;-64
2020/12/30 03:44:43;;;;;;;3.13;0.32;;;;;;;5.04;84.62;99635.41;5069637;28;20052;-63
2020/12/30 03:47:10;;;;;;;4.13;0.57;;;;;;;5.05;84.79;99639.00;5072061;28;20044;-64
2020/12/30 03:49:36;;;;;;;5.13;0.40;;;;;;;5.03;84.92;99633.75;5071977;28;20516;-63
2020/12/30 03:52:04;;;;;;;4.97;0.50;;;;;;;5.01;84.81;99629.63;5072370;28;20075;-64
2020/12/30 03:54:31;;;;;;;7.80;0.47;;;;;;;4.97;84.29;99634.94;5071450;28;20044;-64
2020/12/30 03:56:58;;;;;;;4.13;0.60;;;;;;;4.97;84.78;99634.94;5071900;28;20041;-66
2020/12/30 03:59:24;;;;;;;3.45;0.77;;;;;;;4.98;84.49;99635.78;5071533;28;20033;-61
2020/12/30 04:01:51;;;;;;;4.40;0.45;;;;;;;4.97;84.22;99634.13;5068335;28;20072;-63
2020/12/30 04:04:18;;;;;;;7.20;0.40;;;;;;;4.96;84.51;99626.94;5072938;28;20140;-65
2020/12/30 04:06:44;;;;;;;6.35;0.43;;;;;;;4.95;84.24;99628.06;5072884;28;20466;-66
2020/12/30 04:09:12;;;;;;;2.30;0.30;;;;;;;4.92;84.31;99629.47;5072260;28;20051;-62
2020/12/30 04:11:39;;;;;;;2.63;0.38;;;;;;;4.91;84.56;99630.56;5072771;28;20048;-59
2020/12/30 04:14:06;;;;;;;2.28;0.40;;;;;;;4.89;84.69;99634.75;5073188;28;20480;-60
2020/12/30 04:16:33;;;;;;;3.17;0.77;;;;;;;4.83;84.48;99623.72;5071930;28;20491;-64
2020/12/30 04:19:00;;;;;;;4.35;0.40;;;;;;;4.82;84.51;99632.31;5073020;28;20045;-62
2020/12/30 04:21:27;;;;;;;6.60;0.73;;;;;;;4.83;84.78;99636.72;5071763;28;20050;-61
2020/12/30 04:23:54;;;;;;;2.50;0.35;;;;;;;4.83;84.55;99631.19;5072644;28;20050;-60
2020/12/30 04:26:22;;;;;;;3.08;0.40;;;;;;;4.85;84.60;99637.25;5072761;28;20119;-57
2020/12/30 04:28:50;;;;;;;2.10;0.55;;;;;;;4.85;84.87;99638.09;5072212;28;20123;-61
2020/12/30 04:31:18;;;;;;;2.15;0.50;;;;;;;4.88;84.88;99642.22;5072254;28;20033;-56
2020/12/30 04:33:45;;;;;;;3.53;0.40;;;;;;;4.90;84.78;99647.44;5072359;28;20048;-63
2020/12/30 04:36:13;;;;;;;2.92;0.40;;;;;;;4.91;84.79;99646.34;5071835;28;20120;-61
2020/12/30 04:38:40;;;;;;;2.78;0.40;;;;;;;4.92;85.07;99651.56;5072658;28;20049;-61
2020/12/30 04:41:09;;;;;;;2.25;0.32;;;;;;;4.94;85.25;99657.66;5072222;28;20414;-61
2020/12/30 04:43:38;;;;;;;2.63;0.30;;;;;;;4.95;85.48;99653.75;5071960;28;20395;-62
2020/12/30 04:46:05;;;;;;;4.00;0.40;;;;;;;5.00;85.26;99655.63;5071640;28;20057;-60
2020/12/30 04:48:33;;;;;;;3.22;0.45;;;;;;;5.02;85.33;99661.69;5072296;28;20123;-57
2020/12/30 04:51:01;;;;;;;4.68;0.75;;;;;;;5.03;85.23;99661.41;5071441;28;20131;-61
2020/12/30 04:53:28;;;;;;;3.15;0.40;;;;;;;5.05;85.28;99666.63;5061037;28;20116;-61
2020/12/30 04:55:59;;;;;;;3.78;0.32;;;;;;;5.05;85.23;99661.13;5071462;28;20068;-62
2020/12/30 04:58:28;;;;;;;3.97;0.30;;;;;;;5.02;85.37;99664.47;5070383;28;20501;-63
2020/12/30 05:00:57;;;;;;;2.17;0.25;;;;;;;5.01;85.50;99669.16;5071938;28;20048;-63
2020/12/30 05:03:27;;;;;;;3.75;0.50;;;;;;;4.99;86.03;99663.13;5071710;28;20132;-59
2020/12/30 05:05:56;;;;;;;4.10;0.40;;;;;;;4.98;85.91;99663.41;5071938;28;20044;-59
2020/12/30 05:08:22;;;;;;;3.58;0.30;;;;;;;4.97;86.01;99678.34;5071895;28;20048;-59
2020/12/30 05:10:52;;;;;;;3.63;0.30;;;;;;;4.95;86.43;99686.09;5070701;28;20049;-61
2020/12/30 05:13:19;;;;;;;4.68;0.28;;;;;;;4.95;86.51;99688.88;5071355;28;20388;-59
2020/12/30 05:15:46;;;;;;;2.45;0.20;;;;;;;4.94;86.30;99687.22;5071771;28;20483;-61
2020/12/30 05:18:14;;;;;;;1.95;0.40;;;;;;;4.94;86.47;99690.00;5071105;28;20045;-57
2020/12/30 05:20:41;;;;;;;1.85;0.20;;;;;;;4.93;86.71;99693.88;5071637;28;20045;-58
2020/12/30 05:23:08;;;;;;;4.40;0.30;;;;;;;4.93;86.78;99691.09;5071467;28;20055;-52
2020/12/30 05:25:36;;;;;;;1.50;0.20;;;;;;;4.91;87.15;99687.81;5070400;28;20151;-56
2020/12/30 05:28:04;;;;;;;0.63;0.20;;;;;;;4.90;87.17;99692.50;5071237;28;20059;-58
2020/12/30 05:30:32;;;;;;;3.65;0.35;;;;;;;4.89;87.37;99690.03;5071252;28;20045;-57
2020/12/30 05:32:59;;;;;;;3.25;0.28;;;;;;;4.87;87.20;99684.78;5071028;28;20131;-56
2020/12/30 05:35:27;;;;;;;1.38;0.30;;;;;;;4.86;87.31;99680.38;5071470;28;20529;-55
2020/12/30 05:37:55;;;;;;;1.83;0.30;;;;;;;4.84;87.43;99679.84;5071197;28;20047;-56
2020/12/30 05:40:24;;;;;;;1.80;0.20;;;;;;;4.80;87.67;99693.41;5070656;28;20127;-57
2020/12/30 05:42:51;;;;;;;2.38;0.30;;;;;;;4.77;87.67;99695.94;5070839;28;20131;-59
2020/12/30 05:45:23;;;;;;;5.75;0.93;;;;;;;4.71;87.71;99699.84;5070682;28;20052;-58
2020/12/30 05:47:50;;;;;;;4.03;0.40;;;;;;;4.63;87.67;99700.47;5070428;28;20098;-59
2020/12/30 05:50:24;;;;;;;2.75;0.28;;;;;;;4.58;87.78;99703.28;5070979;28;20045;-57
2020/12/30 05:52:52;;;;;;;1.05;0.38;;;;;;;4.50;87.93;99708.31;5070577;28;20045;-57
2020/12/30 05:55:25;;;;;;;3.05;0.40;;;;;;;4.47;88.13;99705.28;5070782;28;20059;-52
2020/12/30 05:57:53;;;;;;;2.22;0.30;;;;;;;4.40;88.04;99705.59;5070919;28;20041;-56
2020/12/30 06:00:20;;;;;;;2.90;0.30;;;;;;;4.34;88.21;99708.69;5070534;28;20494;-55
2020/12/30 06:02:48;;;;;;;1.98;0.40;;;;;;;4.27;88.17;99709.00;5070842;28;20383;-55
2020/12/30 06:05:17;;;;;;;1.38;0.20;;;;;;;4.21;88.09;99709.31;5069671;28;20033;-59
2020/12/30 06:07:45;;;;;;;1.17;0.20;;;;;;;4.16;88.48;99718.47;5069197;28;20050;-56
2020/12/30 06:10:16;;;;;;;1.30;0.20;;;;;;;4.10;88.69;99714.09;5069868;28;20041;-59
2020/12/30 06:12:51;;;;;;;1.13;0.20;;;;;;;4.04;88.44;99715.22;5070747;28;20400;-60
2020/12/30 06:15:20;;;;;;;1.10;0.30;;;;;;;3.97;88.83;99723.00;5069484;28;20198;-58
2020/12/30 06:17:52;;;;;;;2.97;0.70;;;;;;;3.92;88.82;99736.81;5070472;28;20492;-60
2020/12/30 06:20:21;;;;;;;3.85;0.90;;;;;;;3.83;88.72;99731.03;5069873;28;20052;-59
2020/12/30 06:22:56;;;;;;;4.20;0.85;;;;;;;3.76;88.79;99725.84;5069977;28;20163;-59
2020/12/30 06:25:29;;;;;;;2.03;0.55;;;;;;;3.70;88.94;99732.50;5069881;28;20125;-56
2020/12/30 06:27:56;;;;;;;4.03;0.70;;;;;;;3.67;89.04;99732.22;5070372;28;20083;-58
2020/12/30 06:30:23;;;;;;;2.60;0.50;;;;;;;3.63;89.01;99740.22;5069186;28;20224;-59
2020/12/30 06:32:50;;;;;;;1.90;0.40;;;;;;;3.63;89.32;99739.41;5069991;28;20533;-58
2020/12/30 06:35:28;;;;;;;1.48;0.32;;;;;;;3.63;89.40;99748.50;5069041;28;20400;-59
2020/12/30 06:37:55;;;;;;;1.38;0.40;;;;;;;3.61;89.37;99756.22;5070027;28;20051;-60
2020/12/30 06:40:30;;;;;;;3.72;0.70;;;;;;;3.60;89.30;99751.00;5069604;28;20052;-61
2020/12/30 06:42:59;;;;;;;1.38;0.60;;;;;;;3.56;89.25;99749.94;5070072;28;20051;-56
2020/12/30 06:45:55;;;;;;;3.30;0.52;;;;;;;3.53;89.26;99748.56;5069398;28;20431;-55
2020/12/30 06:48:22;;;;;;;1.58;0.55;;;;;;;3.49;89.48;99763.16;5068887;28;20079;-59
2020/12/30 06:50:50;;;;;;;1.80;0.40;;;;;;;3.50;89.74;99776.69;5069055;28;20098;-56
2020/12/30 06:53:35;;;;;;;1.23;0.40;;;;;;;3.53;89.84;99800.94;5069775;28;20040;-62
2020/12/30 06:56:03;;;;;;;2.50;0.70;;;;;;;3.55;89.84;99796.00;5069171;28;20128;-59
2020/12/30 06:58:47;;;;;;;5.20;0.75;;;;;;;3.57;89.68;99798.47;5069385;28;20080;-58
2020/12/30 07:01:16;;;;;;;4.35;0.60;;;;;;;3.56;89.85;99792.13;5069166;28;20040;-57
2020/12/30 07:03:43;;;;;;;2.58;0.35;;;;;;;3.60;89.91;99801.47;5069114;28;20079;-59
2020/12/30 07:06:34;;;;;;;0.85;0.20;;;;;;;3.71;90.16;99788.50;5069313;28;20095;-60
2020/12/30 07:09:03;;;;;;;1.52;0.20;;;;;;;3.75;90.09;99792.34;5069669;28;20049;-58
2020/12/30 07:11:51;;;;;;;1.75;0.30;;;;;;;3.81;90.00;99763.63;5068709;28;20127;-54
2020/12/30 07:14:20;;;;;;;1.40;0.30;;;;;;;3.83;90.01;99771.63;5069730;28;20055;-59
2020/12/30 07:16:52;;;;;;;2.17;0.70;;;;;;;3.86;89.83;99780.16;5069022;28;20123;-59
2020/12/30 07:19:21;;;;;;;2.33;0.50;;;;;;;3.84;89.42;99782.38;5068161;28;20055;-61
2020/12/30 07:21:56;;;;;;;2.53;0.30;;;;;;;3.83;89.57;99782.66;5067334;28;20036;-58
2020/12/30 07:24:24;;;;;;;1.95;0.40;;;;;;;3.78;89.34;99794.56;5068863;28;20049;-58
2020/12/30 07:26:55;;;;;;;2.17;0.50;;;;;;;3.74;89.43;99788.75;5068935;28;20045;-57
2020/12/30 07:29:22;;;;;;;2.45;0.40;;;;;;;3.72;89.70;99795.66;5069009;28;20075;-57
2020/12/30 07:31:51;;;;;;;0.65;0.20;;;;;;;3.68;89.42;99803.66;5068487;28;20135;-56
2020/12/30 07:34:20;;;;;;;1.27;0.30;;;;;;;3.64;89.45;99804.50;5069217;28;20505;-57
2020/12/30 07:36:48;;;;;;;0.75;0.20;;;;;;;3.59;89.50;99808.13;5068630;28;20048;-57
2020/12/30 07:39:16;;;;;;;1.35;0.43;;;;;;;3.54;89.48;99802.59;5068919;28;20123;-56
2020/12/30 07:41:45;;;;;;;1.80;0.30;;;;;;;3.48;89.53;99817.50;5068635;28;20040;-61
2020/12/30 07:44:15;;;;;;;0.93;0.25;;;;;;;3.42;89.66;99816.66;5058866;28;20045;-57
2020/12/30 07:46:43;;;;;;;3.53;1.27;;;;;;;3.37;89.58;99824.97;5068010;28;20464;-57
2020/12/30 07:49:15;;;;;;;2.17;0.70;;;;;;;3.32;89.72;99824.97;5068686;28;20083;-58
2020/12/30 07:51:50;;;;;;;2.80;0.50;;;;;;;3.28;89.89;99829.38;5068253;28;20084;-59
2020/12/30 07:54:18;;;;;;;2.80;0.43;;;;;;;3.24;89.88;99832.97;5068256;28;20168;-58
2020/12/30 07:56:45;;;;;;;1.83;0.40;;;;;;;3.18;89.94;99834.09;5068887;28;20182;-61
2020/12/30 07:59:20;;;;;;;1.42;0.50;;;;;;;3.15;90.10;99831.88;5068822;28;20067;-59
2020/12/30 08:01:58;;;;;;;2.22;0.57;;;;;;;3.11;90.14;99839.84;5067057;28;20055;-59
2020/12/30 08:04:26;;;;;;;3.63;0.60;;;;;;;3.06;90.08;99840.69;5068637;28;20037;-58
2020/12/30 08:06:53;;;;;;;1.60;0.55;;;;;;;3.04;90.29;99845.63;5068525;28;20102;-57
2020/12/30 08:09:25;;;;;;;3.08;0.55;;;;;;;3.02;90.20;99847.84;5067125;28;20052;-61
2020/12/30 08:11:53;;;;;;;2.10;0.40;;;;;;;3.00;90.22;99855.53;5069064;28;20045;-58
2020/12/30 08:14:22;;;;;;;1.48;0.47;;;;;;;3.01;90.26;99853.63;5067876;28;20128;-60
2020/12/30 08:16:54;;;;;;;1.70;0.60;;;;;;;3.02;90.32;99858.84;5068929;28;20084;-59
2020/12/30 08:19:35;;;;;;;2.80;0.50;;;;;;;3.02;90.43;99869.88;5067987;28;20052;-61
2020/12/30 08:22:04;;;;;;;3.10;0.80;;;;;;;2.99;90.30;99862.19;5068619;28;20052;-60
2020/12/30 08:24:32;;;;;;;3.35;0.80;;;;;;;2.99;90.29;99870.44;5068087;28;20145;-61
2020/12/30 08:27:00;;;;;;;5.70;0.70;;;;;;;3.00;90.11;99874.00;5068821;28;20135;-61
2020/12/30 08:29:32;;;;;;;2.85;0.70;;;;;;;3.01;90.51;99867.41;5068000;28;20045;-60
2020/12/30 08:32:02;;;;;;;5.97;1.10;;;;;;;3.01;90.36;99873.72;5072096;28;20353;-61
2020/12/30 08:34:35;;;;;;;2.42;0.60;;;;;;;3.03;90.41;99871.53;5071628;28;20075;-62
2020/12/30 08:37:05;;;;;;;4.93;0.60;;;;;;;3.09;90.53;99869.63;5071520;28;20398;-62
2020/12/30 08:39:36;;;;;;;1.10;0.30;;;;;;;3.18;90.74;99883.69;5070435;28;20044;-61
2020/12/30 08:42:08;;;;;;;2.67;0.40;;;;;;;3.28;90.91;99883.69;5071193;28;20519;-62
2020/12/30 08:44:44;;;;;;;3.13;0.40;;;;;;;3.41;90.82;99885.88;5071631;28;20053;-62
2020/12/30 08:47:14;;;;;;;4.55;0.40;;;;;;;3.54;90.76;99892.78;5072369;28;20040;-61
2020/12/30 08:49:43;;;;;;;3.88;0.73;;;;;;;3.64;90.73;99896.34;5070825;28;20493;-61
2020/12/30 08:52:20;;;;;;;6.13;0.90;;;;;;;3.74;90.38;99899.13;5071830;28;20052;-62
2020/12/30 08:54:47;;;;;;;3.80;1.00;;;;;;;3.83;90.71;99895.78;5070888;28;20496;-62
2020/12/30 08:57:19;;;;;;;5.28;1.20;;;;;;;3.93;90.69;99890.25;5071398;28;20048;-62
2020/12/30 08:59:47;;;;;;;8.98;1.42;;;;;;;4.00;90.48;99893.53;5071541;28;20124;-61
2020/12/30 09:02:14;;;;;;;8.75;1.10;;;;;;;4.03;90.62;99895.75;5071779;28;20071;-62
2020/12/30 09:04:53;;;;;;;8.18;1.05;;;;;;;4.09;90.51;99900.16;5070702;28;20045;-62
2020/12/30 09:07:26;;;;;;;9.50;1.20;;;;;;;4.11;90.39;99895.19;5071714;28;20044;-62
2020/12/30 09:10:00;;;;;;;11.60;1.20;;;;;;;4.17;90.15;99904.28;5070729;28;20048;-61
2020/12/30 09:12:27;;;;;;;4.32;0.80;;;;;;;4.22;90.24;99915.28;5071767;28;20194;-62
2020/12/30 09:14:54;;;;;;;8.00;1.00;;;;;;;4.26;90.25;99906.16;5071068;28;20384;-61
2020/12/30 09:17:21;;;;;;;5.10;0.70;;;;;;;4.29;90.08;99910.31;5070896;28;20159;-62
2020/12/30 09:19:49;;;;;;;3.20;0.50;;;;;;;4.34;90.21;99913.88;5070958;28;20139;-62
2020/12/30 09:22:15;;;;;;;3.00;0.45;;;;;;;4.48;90.67;99914.94;5071268;28;20555;-60
2020/12/30 09:24:44;;;;;;;2.40;0.30;;;;;;;4.74;91.08;99918.41;5070613;28;20447;-63
2020/12/30 09:27:20;;;;;;;3.83;0.45;;;;;;;5.20;91.59;99918.13;5071298;28;20037;-63
2020/12/30 09:30:06;;;;;;;3.25;0.40;;;;;;;5.45;90.15;99929.03;5071001;28;20124;-61
2020/12/30 09:32:33;;;;;;;3.42;0.30;;;;;;;5.52;89.80;99923.19;5070893;28;20047;-62
2020/12/30 09:35:00;;;;;;;2.55;0.45;;;;;;;5.57;89.50;99927.84;5070736;28;20367;-62
2020/12/30 09:37:27;;;;;;;2.85;0.30;;;;;;;5.61;89.73;99926.97;5070824;28;20036;-61
2020/12/30 09:40:09;;;;;;;3.58;0.45;;;;;;;5.83;89.69;99937.56;5070665;28;20101;-61
2020/12/30 09:42:37;;;;;;;1.03;0.20;;;;;;;5.93;89.34;99940.28;5069612;28;20119;-60
2020/12/30 09:45:08;;;;;;;4.75;0.70;;;;;;;6.11;89.78;99934.03;5070174;28;20059;-60
2020/12/30 09:47:35;;;;;;;2.05;0.30;;;;;;;6.66;89.65;99944.75;5070584;28;20044;-59
2020/12/30 09:50:03;;;;;;;5.32;0.65;;;;;;;7.35;89.11;99946.06;5070618;28;20135;-60
2020/12/30 09:52:33;;;;;;;3.88;0.50;;;;;;;8.49;87.48;99951.91;5069925;28;20132;-61
2020/12/30 09:55:00;;;;;;;3.60;0.52;;;;;;;9.49;84.43;99943.63;5070723;28;20052;-62
2020/12/30 09:57:27;;;;;;;4.70;0.52;;;;;;;10.26;82.15;99948.97;5070689;28;20068;-62
2020/12/30 09:59:54;;;;;;;3.85;0.50;;;;;;;10.67;81.23;99949.50;5068816;28;20052;-64
2020/12/30 10:02:22;;;;;;;3.08;0.50;;;;;;;11.03;80.59;99949.28;5070215;28;20154;-66
2020/12/30 10:04:48;;;;;;;6.63;0.80;;;;;;;11.47;80.12;99946.56;5070285;28;20054;-68
2020/12/30 10:07:15;;;;;;;3.65;0.50;;;;;;;12.01;78.30;99948.72;5069595;28;20037;-69
2020/12/30 10:09:42;;;;;;;2.70;0.57;;;;;;;11.94;77.72;99953.19;5070166;28;20087;-67
2020/12/30 10:12:09;;;;;;;2.78;0.45;;;;;;;11.74;78.01;99946.25;5069940;28;20048;-65
2020/12/30 10:14:35;;;;;;;5.00;0.60;;;;;;;11.94;76.98;99947.59;5069478;28;20045;-64
2020/12/30 10:17:02;;;;;;;4.50;0.65;;;;;;;12.11;76.31;99943.94;5069878;28;20033;-64
2020/12/30 10:19:30;;;;;;;3.22;0.50;;;;;;;12.79;74.73;99944.88;5069942;28;20143;-64
2020/12/30 10:21:57;;;;;;;5.50;0.50;;;;;;;13.69;71.90;99936.91;5069382;28;20538;-64
2020/12/30 10:24:23;;;;;;;6.32;0.50;;;;;;;14.32;69.68;99929.22;5069710;28;20082;-64
2020/12/30 10:26:50;;;;;;;4.00;0.40;;;;;;;14.91;67.49;99940.09;5070013;28;20051;-63
2020/12/30 10:29:17;;;;;;;2.63;0.50;;;;;;;15.03;66.04;99943.69;5069832;28;20049;-66
2020/12/30 10:31:49;;;;;;;2.70;0.40;;;;;;;14.76;65.25;99939.63;5069912;28;20048;-64
2020/12/30 10:34:15;;;;;;;6.43;0.50;;;;;;;14.15;65.72;99938.63;5068192;28;20036;-65
2020/12/30 10:36:44;;;;;;;3.13;0.40;;;;;;;13.80;65.54;99936.13;5069682;28;20072;-62
2020/12/30 10:39:10;;;;;;;3.83;0.50;;;;;;;14.17;64.76;99938.28;5069613;28;20127;-61
2020/12/30 10:41:37;;;;;;;3.85;0.55;;;;;;;14.58;63.21;99932.56;5069646;28;20052;-63
2020/12/30 10:44:04;;;;;;;2.38;0.52;;;;;;;14.44;62.67;99937.69;5069362;28;20072;-65
2020/12/30 10:46:37;;;;;;;3.65;0.60;;;;;;;14.10;63.53;99936.84;5069961;28;20040;-63
2020/12/30 10:49:04;;;;;;;2.92;0.50;;;;;;;14.05;62.64;99937.06;5068439;28;20048;-61
2020/12/30 10:51:31;;;;;;;4.13;0.65;;;;;;;14.25;61.66;99938.19;5069635;28;20044;-62
2020/12/30 10:53:59;;;;;;;3.45;0.52;;;;;;;14.39;61.03;99949.09;5068779;28;20590;-59
2020/12/30 10:56:27;;;;;;;4.32;0.60;;;;;;;14.79;60.14;99950.13;5069083;28;20155;-59
2020/12/30 10:58:54;;;;;;;2.42;0.50;;;;;;;15.10;59.02;99955.19;5069173;28;20040;-61
2020/12/30 11:01:21;;;;;;;3.65;0.88;;;;;;;15.24;59.05;99954.81;5069425;28;20043;-59
2020/12/30 11:03:47;;;;;;;3.90;0.60;;;;;;;15.63;57.70;99952.44;5068696;28;20041;-58
2020/12/30 11:06:15;;;;;;;4.40;0.50;;;;;;;15.68;56.75;99955.84;5069618;28;20076;-61
2020/12/30 11:08:42;;;;;;;4.20;0.63;;;;;;;15.03;57.24;99956.94;5068862;28;20048;-60
2020/12/30 11:11:10;;;;;;;3.05;0.38;;;;;;;14.13;57.90;99953.00;5068875;28;20083;-58
2020/12/30 11:13:36;;;;;;;1.08;0.20;;;;;;;13.10;56.00;99965.81;5069136;28;20040;-58
2020/12/30 11:16:03;;;;;;;2.20;0.30;;;;;;;12.09;56.33;99961.06;5069171;28;20119;-60
2020/12/30 11:18:30;;;;;;;1.98;0.32;;;;;;;11.28;58.70;99964.47;5068203;28;20132;-61
2020/12/30 11:20:57;;;;;;;3.55;0.40;;;;;;;10.57;60.21;99960.13;5069547;28;20419;-59
2020/12/30 11:23:23;;;;;;;1.40;0.40;;;;;;;9.95;61.51;99958.09;5069582;28;20045;-58
2020/12/30 11:25:51;;;;;;;1.40;0.30;;;;;;;9.58;62.68;99953.72;5068743;28;20036;-60
2020/12/30 11:28:18;;;;;;;1.95;0.20;;;;;;;9.25;63.34;99957.81;5069070;28;20053;-62
2020/12/30 11:30:45;;;;;;;1.88;0.30;;;;;;;9.23;63.83;99952.56;5067871;28;20404;-61
2020/12/30 11:33:12;;;;;;;1.25;0.20;;;;;;;9.80;63.38;99952.06;5068712;28;20056;-62
2020/12/30 11:35:39;;;;;;;4.50;0.45;;;;;;;9.92;63.00;99953.16;5067573;28;20231;-62
2020/12/30 11:38:06;;;;;;;2.05;0.40;;;;;;;9.80;63.46;99958.47;5068298;28;20118;-63
2020/12/30 11:40:32;;;;;;;2.60;0.38;;;;;;;9.45;64.00;99959.31;5067556;28;20044;-63
2020/12/30 11:42:59;;;;;;;5.95;0.85;;;;;;;9.03;65.41;99955.78;5069015;28;20049;-63
2020/12/30 11:45:27;;;;;;;4.45;0.45;;;;;;;8.71;66.18;99965.09;5067387;28;20049;-63
2020/12/30 11:47:54;;;;;;;2.20;0.40;;;;;;;8.49;67.24;99974.13;5068439;28;20127;-63